Time;durP1;ratioP1;P1;durP2;ratioP2;P2;SDS_P1;SDS_P2;PMS_P1;PMS_P2;Temp;Humidity;BMP_temperature;BMP_pressure;BME280_temperature;BME280_humidity;BME280_pressure;Samples;Min_cycle;Max_cycle;Signal;HPM_P1;HPM_P2
2023/07/10 00:07:50;;;;;;;10.4;6.8;;;;;;;15.49;76.11;;;;;
2023/07/10 00:18:50;;;;;;;10.4;6.8;;;;;;;15.38;78.2;;;;;
2023/07/10 00:28:50;;;;;;;10.4;6.8;;;;;;;15.23;76.99;;;;;
2023/07/10 00:38:50;;;;;;;8.1;5.2;;;;;;;15.07;76.5;;;;;
2023/07/10 00:48:50;;;;;;;8.1;5.2;;;;;;;14.92;78.35;;;;;
2023/07/10 00:58:50;;;;;;;8.1;5.2;;;;;;;14.76;78.92;;;;;
2023/07/10 01:09:50;;;;;;;9.9;6.4;;;;;;;14.67;81.16;;;;;
2023/07/10 01:20:50;;;;;;;9.9;6.4;;;;;;;14.53;80.71;;;;;
2023/07/10 01:30:50;;;;;;;9.1;6.9;;;;;;;14.45;82.49;;;;;
2023/07/10 01:41:50;;;;;;;9.1;6.9;;;;;;;14.4;82.43;;;;;
2023/07/10 01:51:50;;;;;;;9.1;6.9;;;;;;;14.27;81.29;;;;;
2023/07/10 02:01:50;;;;;;;10.4;6.1;;;;;;;14.19;83.22;;;;;
2023/07/10 02:12:50;;;;;;;10.4;6.1;;;;;;;14.09;81.75;;;;;
2023/07/10 02:22:50;;;;;;;10.4;6.1;;;;;;;13.92;82.57;;;;;
2023/07/10 02:33:50;;;;;;;8.6;5.5;;;;;;;13.9;82.36;;;;;
2023/07/10 02:43:58;;;;;;;8.6;5.5;;;;;;;13.83;82.38;;;;;
2023/07/10 02:54:58;;;;;;;8.6;5.5;;;;;;;13.82;82.71;;;;;
2023/07/10 03:05:58;;;;;;;8.7;6.3;;;;;;;13.84;83.16;;;;;
2023/07/10 03:15:58;;;;;;;8.7;6.3;;;;;;;13.95;82.93;;;;;
2023/07/10 03:26:58;;;;;;;8.7;6.3;;;;;;;14.07;83.94;;;;;
2023/07/10 03:37:58;;;;;;;10.7;5.6;;;;;;;14.2;84.47;;;;;
2023/07/10 03:47:58;;;;;;;10.7;5.6;;;;;;;14.57;83.55;;;;;
2023/07/10 03:57:58;;;;;;;10.7;5.6;;;;;;;14.83;84.09;;;;;
2023/07/10 04:08:58;;;;;;;7.6;6;;;;;;;15.27;83.08;;;;;
2023/07/10 04:19:58;;;;;;;7.6;6;;;;;;;15.71;81.76;;;;;
2023/07/10 04:29:58;;;;;;;9.5;7;;;;;;;16.15;81.31;;;;;
2023/07/10 04:40:58;;;;;;;9.5;7;;;;;;;16.62;79.82;;;;;
2023/07/10 04:51:58;;;;;;;9.5;7;;;;;;;17.09;79.38;;;;;
2023/07/10 05:02:58;;;;;;;15.9;6.6;;;;;;;17.73;78.2;;;;;
2023/07/10 05:12:58;;;;;;;15.9;6.6;;;;;;;18.11;76.88;;;;;
2023/07/10 05:23:58;;;;;;;15.9;6.6;;;;;;;18.67;74.03;;;;;
2023/07/10 05:34:58;;;;;;;10.1;7.6;;;;;;;19.05;72.96;;;;;
2023/07/10 05:44:58;;;;;;;10.1;7.6;;;;;;;19.4;71.6;;;;;
2023/07/10 05:55:58;;;;;;;10.1;7.6;;;;;;;19.69;68.8;;;;;
2023/07/10 06:06:58;;;;;;;9.4;8;;;;;;;19.94;65.91;;;;;
2023/07/10 06:16:58;;;;;;;9.4;8;;;;;;;20.27;66.79;;;;;
2023/07/10 06:27:58;;;;;;;9.4;8;;;;;;;20.71;63.52;;;;;
2023/07/10 06:37:58;;;;;;;11;8.3;;;;;;;21.25;59.14;;;;;
2023/07/10 06:48:58;;;;;;;11;8.3;;;;;;;21.67;57.87;;;;;
2023/07/10 06:59:58;;;;;;;12.2;7.6;;;;;;;22.05;58.01;;;;;
2023/07/10 07:10:58;;;;;;;12.2;7.6;;;;;;;22.29;58.1;;;;;
2023/07/10 07:20:58;;;;;;;12.2;7.6;;;;;;;22.66;58.94;;;;;
2023/07/10 07:31:59;;;;;;;12.1;8.5;;;;;;;23.1;59.34;;;;;
2023/07/10 07:42:58;;;;;;;12.1;8.5;;;;;;;23.53;59.14;;;;;
2023/07/10 07:53:58;;;;;;;12.1;8.5;;;;;;;24.01;56;;;;;
2023/07/10 08:03:58;;;;;;;9.3;6;;;;;;;24.25;54.14;;;;;
2023/07/10 08:14:58;;;;;;;9.3;6;;;;;;;25.14;53.34;;;;;
2023/07/10 08:24:58;;;;;;;9.3;6;;;;;;;25.86;48.35;;;;;
2023/07/10 08:35:58;;;;;;;7.5;4.8;;;;;;;26.3;46.85;;;;;
2023/07/10 08:46:58;;;;;;;7.5;4.8;;;;;;;26.87;43.13;;;;;
2023/07/10 08:56:58;;;;;;;7.5;4.8;;;;;;;27.61;46.23;;;;;
2023/07/10 09:07:58;;;;;;;6.9;4.3;;;;;;;27.46;40.23;;;;;
2023/07/10 09:17:58;;;;;;;6.9;4.3;;;;;;;28;38.77;;;;;
2023/07/10 09:27:58;;;;;;;6.9;4.3;;;;;;;28.13;40.21;;;;;
2023/07/10 09:37:58;;;;;;;6.1;3.4;;;;;;;28.21;40.07;;;;;
2023/07/10 09:48:58;;;;;;;6.1;3.4;;;;;;;28.42;39.77;;;;;
2023/07/10 09:59:59;;;;;;;7;3.4;;;;;;;28.86;37.92;;;;;
2023/07/10 10:10:58;;;;;;;7;3.4;;;;;;;29.05;38.36;;;;;
2023/07/10 10:20:58;;;;;;;7;3.4;;;;;;;29.41;37.61;;;;;
2023/07/10 10:30:58;;;;;;;6.3;3.7;;;;;;;29.22;36.79;;;;;
2023/07/10 10:41:58;;;;;;;6.3;3.7;;;;;;;29.46;34;;;;;
2023/07/10 10:52:58;;;;;;;6.3;3.7;;;;;;;29.54;33.41;;;;;
2023/07/10 11:02:58;;;;;;;6;3.5;;;;;;;29.42;32.42;;;;;
2023/07/10 11:12:58;;;;;;;6;3.5;;;;;;;29.49;34.16;;;;;
2023/07/10 11:23:58;;;;;;;6;3.5;;;;;;;29.87;34.03;;;;;
2023/07/10 11:33:58;;;;;;;5.6;3.2;;;;;;;30.26;32.75;;;;;
2023/07/10 11:44:59;;;;;;;5.6;3.2;;;;;;;30.42;32.98;;;;;
2023/07/10 11:54:58;;;;;;;5.6;3.2;;;;;;;30.96;35.39;;;;;
2023/07/10 12:04:58;;;;;;;6.1;3.2;;;;;;;30.69;34.7;;;;;
2023/07/10 12:15:58;;;;;;;6.1;3.2;;;;;;;30.94;37.68;;;;;
2023/07/10 12:25:58;;;;;;;6.1;3.2;;;;;;;30.89;36.45;;;;;
2023/07/10 12:35:58;;;;;;;7.1;3.8;;;;;;;31.08;35.56;;;;;
2023/07/10 12:46:59;;;;;;;7.1;3.8;;;;;;;30.77;37.54;;;;;
2023/07/10 12:56:58;;;;;;;7.1;3.8;;;;;;;30.63;38.82;;;;;
2023/07/10 13:06:58;;;;;;;6.9;3.4;;;;;;;30.28;34;;;;;
2023/07/10 13:16:58;;;;;;;6.9;3.4;;;;;;;30.41;35.38;;;;;
2023/07/10 13:27:58;;;;;;;6.9;3.4;;;;;;;30.43;39.12;;;;;
2023/07/10 13:38:58;;;;;;;7.5;4;;;;;;;30.46;40.47;;;;;
2023/07/10 13:48:58;;;;;;;7.5;4;;;;;;;30.06;38.82;;;;;
2023/07/10 13:58:58;;;;;;;7.5;4;;;;;;;29.66;41.3;;;;;
2023/07/10 14:08:58;;;;;;;6.9;3.7;;;;;;;30.75;38.83;;;;;
2023/07/10 14:18:58;;;;;;;6.9;3.7;;;;;;;31.84;36.8;;;;;
2023/07/10 14:28:58;;;;;;;6.9;3.7;;;;;;;32.28;34.19;;;;;
2023/07/10 14:39:58;;;;;;;6.9;4.2;;;;;;;32.06;31.66;;;;;
2023/07/10 14:50:58;;;;;;;6.9;4.2;;;;;;;31.47;32.71;;;;;
2023/07/10 15:01:58;;;;;;;6.5;4.1;;;;;;;31.23;32.73;;;;;
2023/07/10 15:13:01;;;;;;;6.5;4.1;;;;;;;30.38;34.25;;;;;
2023/07/10 15:22:58;;;;;;;6.5;4.1;;;;;;;29.63;35.18;;;;;
2023/07/10 15:33:58;;;;;;;8.3;4.8;;;;;;;28.97;36.49;;;;;
2023/07/10 15:43:58;;;;;;;8.3;4.8;;;;;;;28.59;38.42;;;;;
2023/07/10 15:54:58;;;;;;;8.3;4.8;;;;;;;28.75;39.8;;;;;
2023/07/10 16:05:58;;;;;;;15.2;6.3;;;;;;;29.19;39.94;;;;;
2023/07/10 16:16:58;;;;;;;15.2;6.3;;;;;;;29.43;40.9;;;;;
2023/07/10 16:27:58;;;;;;;15.2;6.3;;;;;;;28.87;41.42;;;;;
2023/07/10 16:38:58;;;;;;;9;5.2;;;;;;;27.46;44.63;;;;;
2023/07/10 16:49:59;;;;;;;9;5.2;;;;;;;26.6;47.34;;;;;
2023/07/10 17:00:58;;;;;;;12.1;6.3;;;;;;;26.08;49.12;;;;;
2023/07/10 17:10:58;;;;;;;12.1;6.3;;;;;;;25.34;52.3;;;;;
2023/07/10 17:20:58;;;;;;;12.1;6.3;;;;;;;24.9;54.23;;;;;
2023/07/10 17:31:58;;;;;;;13.3;7.2;;;;;;;24.62;54.84;;;;;
2023/07/10 17:42:58;;;;;;;13.3;7.2;;;;;;;24.27;56.89;;;;;
2023/07/10 17:53:58;;;;;;;13.3;7.2;;;;;;;24.44;55.72;;;;;
2023/07/10 18:04:58;;;;;;;9.6;6;;;;;;;24.75;54.11;;;;;
2023/07/10 18:14:58;;;;;;;9.6;6;;;;;;;24.39;54.82;;;;;
2023/07/10 18:24:58;;;;;;;9.6;6;;;;;;;23.78;57.55;;;;;
2023/07/10 18:36:00;;;;;;;10.9;6.4;;;;;;;23.05;58.39;;;;;
2023/07/10 18:46:58;;;;;;;10.9;6.4;;;;;;;22.45;58.57;;;;;
2023/07/10 18:57:58;;;;;;;10.9;6.4;;;;;;;21.79;61.03;;;;;
2023/07/10 19:07:58;;;;;;;11;8;;;;;;;21.31;62.45;;;;;
2023/07/10 19:17:58;;;;;;;11;8;;;;;;;20.9;64.57;;;;;
2023/07/10 19:27:58;;;;;;;11;8;;;;;;;20.57;67.7;;;;;
2023/07/10 19:39:00;;;;;;;10.7;7.9;;;;;;;20.28;67.58;;;;;
2023/07/10 19:49:59;;;;;;;10.7;7.9;;;;;;;20.08;68.43;;;;;
2023/07/10 19:59:59;;;;;;;10.7;7.9;;;;;;;19.86;69.08;;;;;
2023/07/10 20:09:58;;;;;;;13;8.8;;;;;;;19.72;69.54;;;;;
2023/07/10 20:20:58;;;;;;;13;8.8;;;;;;;19.74;70.73;;;;;
2023/07/10 20:31:58;;;;;;;13.8;9.2;;;;;;;19.79;71.34;;;;;
2023/07/10 20:42:00;;;;;;;13.8;9.2;;;;;;;19.81;72.47;;;;;
2023/07/10 20:51:59;;;;;;;13.8;9.2;;;;;;;19.86;72.04;;;;;
2023/07/10 21:01:59;;;;;;;13.8;9.8;;;;;;;19.84;71.78;;;;;
2023/07/10 21:12:58;;;;;;;13.8;9.8;;;;;;;19.84;71.91;;;;;
2023/07/10 21:23:58;;;;;;;13.8;9.8;;;;;;;19.86;73.89;;;;;
2023/07/10 21:34:58;;;;;;;14.5;10;;;;;;;19.92;73.59;;;;;
2023/07/10 21:45:58;;;;;;;14.5;10;;;;;;;19.92;74.05;;;;;
2023/07/10 21:55:59;;;;;;;14.5;10;;;;;;;19.96;73.52;;;;;
2023/07/10 22:05:58;;;;;;;11.7;9.1;;;;;;;20;72.33;;;;;
2023/07/10 22:16:58;;;;;;;11.7;9.1;;;;;;;20.12;72.59;;;;;
2023/07/10 22:26:58;;;;;;;11.7;9.1;;;;;;;20.11;74.8;;;;;
2023/07/10 22:36:59;;;;;;;12.1;7.9;;;;;;;19.99;76.96;;;;;
2023/07/10 22:47:58;;;;;;;12.1;7.9;;;;;;;19.89;77.3;;;;;
2023/07/10 22:57:58;;;;;;;12.1;7.9;;;;;;;19.86;77.24;;;;;
2023/07/10 23:07:58;;;;;;;12.2;8;;;;;;;19.68;78.54;;;;;
2023/07/10 23:17:58;;;;;;;12.2;8;;;;;;;19.48;79.52;;;;;
2023/07/10 23:29:00;;;;;;;12.2;8;;;;;;;19.59;78.71;;;;;
2023/07/10 23:39:00;;;;;;;10.6;7.8;;;;;;;19.73;78.49;;;;;
2023/07/10 23:49:59;;;;;;;10.6;7.8;;;;;;;19.85;77.89;;;;;
2023/07/10 23:59:59;;;;;;;10.6;7.8;;;;;;;19.95;78;;;;;
